createdAt,value
2018-10-17T00:02:08.228Z,100042.00
2018-10-17T00:04:37.320Z,100039.00
2018-10-17T00:07:06.411Z,100041.00
2018-10-17T00:09:35.516Z,100037.00
2018-10-17T00:12:05.460Z,100041.00
2018-10-17T00:14:35.533Z,100038.00
2018-10-17T00:17:06.718Z,100038.00
2018-10-17T00:19:35.855Z,100035.00
2018-10-17T00:22:05.178Z,100032.00
2018-10-17T00:24:35.105Z,100036.00
2018-10-17T00:27:04.198Z,100034.00
2018-10-17T00:29:33.339Z,100032.00
2018-10-17T00:32:02.475Z,100034.00
2018-10-17T00:34:31.577Z,100034.00
2018-10-17T00:37:00.663Z,100029.00
2018-10-17T00:39:29.682Z,100027.00
2018-10-17T00:41:58.880Z,100026.00
2018-10-17T00:44:27.951Z,100032.00
2018-10-17T00:46:57.014Z,100029.00
2018-10-17T00:49:26.024Z,100021.00
2018-10-17T00:51:55.041Z,100024.00
2018-10-17T00:54:24.082Z,100019.00
2018-10-17T00:56:53.173Z,100015.00
2018-10-17T00:59:22.244Z,100015.00
2018-10-17T01:01:51.717Z,100007.00
2018-10-17T01:04:21.545Z,100005.00
2018-10-17T01:06:51.896Z,100007.00
2018-10-17T01:09:21.897Z,100006.00
2018-10-17T01:11:51.626Z,100008.00
2018-10-17T01:14:20.828Z,100007.00
2018-10-17T01:16:50.328Z,100008.00
2018-10-17T01:19:19.546Z,100005.00
2018-10-17T01:21:48.647Z,100008.00
2018-10-17T01:24:17.705Z,100008.00
2018-10-17T01:26:46.832Z,100004.00
2018-10-17T01:29:16.038Z,100002.00
2018-10-17T01:31:46.381Z,100009.00
2018-10-17T01:34:16.012Z,100007.00
2018-10-17T01:36:45.447Z,100009.00
2018-10-17T01:39:14.822Z,100009.00
2018-10-17T01:41:44.052Z,100001.00
2018-10-17T01:44:13.348Z,100000.00
2018-10-17T01:46:42.569Z,100002.00
2018-10-17T01:49:11.736Z,99997.00
2018-10-17T01:51:40.834Z,99990.00
2018-10-17T01:54:10.206Z,99996.00
2018-10-17T01:56:39.544Z,99992.00
2018-10-17T01:59:08.828Z,99998.00
2018-10-17T02:01:38.021Z,99993.00
2018-10-17T02:04:07.817Z,99990.00
2018-10-17T02:06:36.988Z,99987.00
2018-10-17T02:09:08.980Z,99987.00
2018-10-17T02:11:38.733Z,99985.00
2018-10-17T02:14:08.635Z,99987.00
2018-10-17T02:16:37.773Z,99981.00
2018-10-17T02:19:07.835Z,99978.00
2018-10-17T02:21:36.952Z,99977.00
2018-10-17T02:24:07.644Z,99971.00
2018-10-17T02:26:36.943Z,99976.00
2018-10-17T02:29:06.692Z,99976.00
2018-10-17T02:31:36.348Z,99977.00
2018-10-17T02:34:05.591Z,99978.00
2018-10-17T02:36:34.796Z,99980.00
2018-10-17T02:39:05.244Z,99984.00
2018-10-17T02:41:34.336Z,99984.00
2018-10-17T02:44:04.227Z,99983.00
2018-10-17T02:46:33.304Z,99981.00
2018-10-17T02:49:02.666Z,99982.00
2018-10-17T02:51:31.823Z,99983.00
2018-10-17T02:54:01.321Z,99984.00
2018-10-17T02:56:30.486Z,99982.00
2018-10-17T02:58:59.640Z,99979.00
2018-10-17T03:01:29.142Z,99981.00
2018-10-17T03:03:59.199Z,99980.00
2018-10-17T03:06:29.166Z,99980.00
2018-10-17T03:08:58.642Z,99982.00
2018-10-17T03:11:27.990Z,99985.00
2018-10-17T03:13:57.308Z,99982.00
2018-10-17T03:16:26.381Z,99983.00
2018-10-17T03:18:55.848Z,99984.00
2018-10-17T03:21:24.867Z,99992.00
2018-10-17T03:23:54.059Z,99994.00
2018-10-17T03:26:23.672Z,100000.00
2018-10-17T03:28:53.095Z,99998.00
2018-10-17T03:31:22.564Z,100002.00
2018-10-17T03:33:51.586Z,100005.00
2018-10-17T03:36:21.259Z,100004.00
2018-10-17T03:38:50.941Z,100005.00
2018-10-17T03:41:20.101Z,100006.00
2018-10-17T03:43:49.375Z,100004.00
2018-10-17T03:46:18.633Z,100008.00
2018-10-17T03:48:47.893Z,100005.00
2018-10-17T03:51:18.341Z,100002.00
2018-10-17T03:53:47.534Z,100005.00
2018-10-17T03:56:16.764Z,100003.00
2018-10-17T03:58:47.668Z,100004.00
2018-10-17T04:01:17.314Z,100005.00
2018-10-17T04:03:46.481Z,100010.00
2018-10-17T04:06:16.953Z,100004.00
2018-10-17T04:08:46.840Z,100002.00
2018-10-17T04:11:16.856Z,100009.00
2018-10-17T04:13:45.975Z,100006.00
2018-10-17T04:16:15.229Z,100008.00
2018-10-17T04:18:44.503Z,100006.00
2018-10-17T04:21:13.770Z,100012.00
2018-10-17T04:23:43.379Z,100032.00
2018-10-17T04:26:12.681Z,100048.00
2018-10-17T04:28:41.913Z,100036.00
2018-10-17T04:31:11.881Z,100049.00
2018-10-17T04:33:41.374Z,100049.00
2018-10-17T04:36:10.857Z,100042.00
2018-10-17T04:38:40.286Z,100047.00
2018-10-17T04:41:09.767Z,100046.00
2018-10-17T04:43:40.024Z,100045.00
2018-10-17T04:46:09.155Z,100047.00
2018-10-17T04:48:38.840Z,100044.00
2018-10-17T04:51:09.688Z,100048.00
2018-10-17T04:53:38.935Z,100048.00
2018-10-17T04:56:09.047Z,100046.00
2018-10-17T04:58:38.572Z,100048.00
2018-10-17T05:01:08.325Z,100039.00
2018-10-17T05:03:37.569Z,100042.00
2018-10-17T05:06:06.885Z,100048.00
2018-10-17T05:08:36.108Z,100044.00
2018-10-17T05:11:06.019Z,100049.00
2018-10-17T05:13:35.365Z,100043.00
2018-10-17T05:16:04.706Z,100049.00
2018-10-17T05:18:34.226Z,100051.00
2018-10-17T05:21:03.501Z,100043.00
2018-10-17T05:23:33.386Z,100048.00
2018-10-17T05:26:03.299Z,100044.00
2018-10-17T05:28:34.235Z,100051.00
2018-10-17T05:31:04.955Z,100053.00
2018-10-17T05:33:34.254Z,100053.00
2018-10-17T05:36:03.570Z,100057.00
2018-10-17T05:38:32.884Z,100052.00
2018-10-17T05:41:02.093Z,100058.00
2018-10-17T05:43:31.422Z,100060.00
2018-10-17T05:46:00.675Z,100067.00
2018-10-17T05:48:29.823Z,100066.00
2018-10-17T05:50:59.171Z,100064.00
2018-10-17T05:53:28.284Z,100060.00
2018-10-17T05:55:57.579Z,100056.00
2018-10-17T05:58:27.199Z,100070.00
2018-10-17T06:00:57.346Z,100071.00
2018-10-17T06:03:26.841Z,100077.00
2018-10-17T06:05:56.464Z,100075.00
2018-10-17T06:08:26.519Z,100075.00
2018-10-17T06:10:55.930Z,100079.00
2018-10-17T06:13:25.457Z,100084.00
2018-10-17T06:15:54.641Z,100079.00
2018-10-17T06:18:24.159Z,100082.00
2018-10-17T06:20:53.562Z,100087.00
2018-10-17T06:23:22.802Z,100083.00
2018-10-17T06:25:52.637Z,100084.00
2018-10-17T06:28:22.026Z,100080.00
2018-10-17T06:30:51.304Z,100078.00
2018-10-17T06:33:20.600Z,100075.00
2018-10-17T06:35:50.456Z,100073.00
2018-10-17T06:38:19.914Z,100076.00
2018-10-17T06:40:49.185Z,100077.00
2018-10-17T06:43:18.299Z,100079.00
2018-10-17T06:45:47.648Z,100080.00
2018-10-17T06:48:16.968Z,100079.00
2018-10-17T06:50:46.233Z,100083.00
2018-10-17T06:53:15.592Z,100081.00
2018-10-17T06:55:44.984Z,100077.00
2018-10-17T06:58:15.070Z,100082.00
2018-10-17T07:00:44.338Z,100085.00
2018-10-17T07:03:14.200Z,100085.00
2018-10-17T07:10:40.835Z,100086.00
2018-10-17T07:13:10.025Z,100084.00
2018-10-17T07:15:39.679Z,100084.00
2018-10-17T07:18:08.823Z,100083.00
2018-10-17T07:20:39.483Z,100087.00
2018-10-17T07:23:08.689Z,100087.00
2018-10-17T07:25:37.789Z,100085.00
2018-10-17T07:28:07.204Z,100083.00
2018-10-17T07:30:38.135Z,100076.00
2018-10-17T07:33:07.344Z,100072.00
2018-10-17T07:35:36.627Z,100080.00
2018-10-17T07:38:05.979Z,100080.00
2018-10-17T07:40:35.269Z,100081.00
2018-10-17T07:43:04.733Z,100078.00
2018-10-17T07:45:34.101Z,100079.00
2018-10-17T07:48:03.427Z,100087.00
2018-10-17T07:50:32.697Z,100082.00
2018-10-17T07:53:01.842Z,100083.00
2018-10-17T07:55:31.518Z,100083.00
2018-10-17T07:58:01.268Z,100087.00
2018-10-17T08:00:30.491Z,100084.00
2018-10-17T08:03:01.136Z,100085.00
2018-10-17T08:05:31.187Z,100083.00
2018-10-17T08:08:00.324Z,100087.00
2018-10-17T08:10:29.449Z,100080.00
2018-10-17T08:12:58.719Z,100080.00
2018-10-17T08:15:28.231Z,100085.00
2018-10-17T08:17:57.532Z,100089.00
2018-10-17T08:20:27.981Z,100089.00
2018-10-17T08:22:57.361Z,100090.00
2018-10-17T08:25:26.708Z,100087.00
2018-10-17T08:27:55.955Z,100091.00
2018-10-17T08:30:25.292Z,100086.00
2018-10-17T08:32:54.744Z,100093.00
2018-10-17T08:35:24.245Z,100091.00
2018-10-17T08:37:53.751Z,100090.00
2018-10-17T08:40:22.680Z,100093.00
2018-10-17T08:42:52.050Z,100083.00
2018-10-17T08:45:21.341Z,100082.00
2018-10-17T08:47:50.555Z,100085.00
2018-10-17T08:50:19.983Z,100084.00
2018-10-17T08:52:49.265Z,100083.00
2018-10-17T08:55:18.708Z,100084.00
2018-10-17T08:57:48.282Z,100091.00
2018-10-17T09:00:17.650Z,100091.00
2018-10-17T09:02:47.343Z,100094.00
2018-10-17T09:05:16.878Z,100095.00
2018-10-17T09:07:46.326Z,100094.00
2018-10-17T09:10:16.912Z,100097.00
2018-10-17T09:12:46.263Z,100092.00
2018-10-17T09:15:15.793Z,100092.00
2018-10-17T09:17:45.158Z,100099.00
2018-10-17T09:20:15.215Z,100097.00
2018-10-17T09:22:44.258Z,100098.00
2018-10-17T09:25:13.778Z,100097.00
2018-10-17T09:27:43.610Z,100101.00
2018-10-17T09:30:13.516Z,100107.00
2018-10-17T09:32:43.041Z,100105.00
2018-10-17T09:35:13.128Z,100104.00
2018-10-17T09:37:42.949Z,100103.00
2018-10-17T09:40:12.832Z,100100.00
2018-10-17T09:42:42.513Z,100105.00
2018-10-17T09:45:12.292Z,100100.00
2018-10-17T09:47:41.755Z,100103.00
2018-10-17T09:50:11.583Z,100103.00
2018-10-17T09:52:41.652Z,100110.00
2018-10-17T09:55:11.135Z,100106.00
2018-10-17T09:57:40.380Z,100100.00
2018-10-17T10:00:15.003Z,100112.00
2018-10-17T10:02:44.094Z,100112.00
2018-10-17T10:05:13.592Z,100108.00
2018-10-17T10:07:43.241Z,100106.00
2018-10-17T10:10:12.769Z,100110.00
2018-10-17T10:12:42.497Z,100102.00
2018-10-17T10:15:12.981Z,100104.00
2018-10-17T10:17:42.663Z,100103.00
2018-10-17T10:20:13.147Z,100104.00
2018-10-17T10:22:42.433Z,100106.00
2018-10-17T10:25:11.969Z,100106.00
2018-10-17T10:27:41.388Z,100103.00
2018-10-17T10:30:11.896Z,100098.00
2018-10-17T10:32:41.287Z,100097.00
2018-10-17T10:35:10.667Z,100095.00
2018-10-17T10:37:40.674Z,100093.00
2018-10-17T10:40:10.308Z,100095.00
2018-10-17T10:42:39.595Z,100095.00
2018-10-17T10:45:08.868Z,100098.00
2018-10-17T10:47:38.206Z,100097.00
2018-10-17T10:50:09.677Z,100094.00
2018-10-17T10:52:39.407Z,100095.00
2018-10-17T10:55:08.735Z,100096.00
2018-10-17T10:57:38.018Z,100096.00
2018-10-17T11:00:08.187Z,100093.00
2018-10-17T11:02:37.680Z,100091.00
2018-10-17T11:05:07.200Z,100084.00
2018-10-17T11:07:36.546Z,100080.00
2018-10-17T11:10:12.068Z,100076.00
2018-10-17T11:12:42.573Z,100075.00
2018-10-17T11:15:12.368Z,100078.00
2018-10-17T11:17:42.362Z,100081.00
2018-10-17T11:20:11.937Z,100077.00
2018-10-17T11:22:41.389Z,100076.00
2018-10-17T11:25:11.099Z,100077.00
2018-10-17T11:27:40.265Z,100075.00
2018-10-17T11:30:11.386Z,100075.00
2018-10-17T11:32:41.052Z,100073.00
2018-10-17T11:35:12.477Z,100066.00
2018-10-17T11:37:42.809Z,100061.00
2018-10-17T11:40:12.191Z,100068.00
2018-10-17T11:42:41.740Z,100067.00
2018-10-17T11:45:11.451Z,100061.00
2018-10-17T11:47:41.815Z,100060.00
2018-10-17T11:50:12.142Z,100056.00
2018-10-17T11:52:41.568Z,100055.00
2018-10-17T11:55:11.479Z,100057.00
2018-10-17T11:57:40.725Z,100051.00
2018-10-17T12:00:12.395Z,100051.00
2018-10-17T12:02:41.927Z,100047.00
2018-10-17T12:05:14.294Z,100050.00
2018-10-17T12:07:43.943Z,100049.00
2018-10-17T12:10:13.201Z,100044.00
2018-10-17T12:12:42.932Z,100038.00
2018-10-17T12:15:14.213Z,100039.00
2018-10-17T12:20:20.874Z,100037.00
2018-10-17T12:22:50.273Z,100033.00
2018-10-17T12:25:20.096Z,100034.00
2018-10-17T12:27:49.582Z,100034.00
2018-10-17T12:30:19.217Z,100038.00
2018-10-17T12:32:48.561Z,100030.00
2018-10-17T12:35:17.879Z,100033.00
2018-10-17T12:37:47.399Z,100031.00
2018-10-17T12:40:16.953Z,100030.00
2018-10-17T12:42:46.194Z,100026.00
2018-10-17T12:45:15.711Z,100029.00
2018-10-17T12:47:45.298Z,100025.00
2018-10-17T12:50:14.656Z,100025.00
2018-10-17T12:52:44.165Z,100024.00
2018-10-17T12:55:14.204Z,100024.00
2018-10-17T12:57:43.553Z,100024.00
2018-10-17T13:00:12.983Z,100025.00
2018-10-17T13:02:42.284Z,100024.00
2018-10-17T13:05:11.828Z,100025.00
2018-10-17T13:07:41.812Z,100023.00
2018-10-17T13:10:12.129Z,100020.00
2018-10-17T13:12:42.410Z,100019.00
2018-10-17T13:15:14.240Z,100015.00
2018-10-17T13:17:45.678Z,100018.00
2018-10-17T13:20:15.606Z,100015.00
2018-10-17T13:22:45.078Z,100014.00
2018-10-17T13:25:14.676Z,100015.00
2018-10-17T13:27:43.739Z,100008.00
2018-10-17T13:30:13.096Z,100009.00
2018-10-17T13:32:42.762Z,100006.00
2018-10-17T13:35:12.549Z,100008.00
2018-10-17T13:37:41.728Z,100001.00
2018-10-17T13:40:11.913Z,100006.00
2018-10-17T13:42:41.044Z,100004.00
2018-10-17T13:45:10.373Z,100005.00
2018-10-17T13:47:39.950Z,100006.00
2018-10-17T13:50:09.175Z,100003.00
2018-10-17T13:52:38.570Z,100000.00
2018-10-17T13:55:08.546Z,100003.00
2018-10-17T13:57:37.832Z,100010.00
2018-10-17T14:00:11.037Z,100008.00
2018-10-17T14:02:40.636Z,100006.00
2018-10-17T14:05:10.269Z,100005.00
2018-10-17T14:07:39.613Z,100008.00
2018-10-17T14:10:09.055Z,100008.00
2018-10-17T14:12:38.279Z,100009.00
2018-10-17T14:15:07.486Z,100007.00
2018-10-17T14:17:36.606Z,100010.00
2018-10-17T14:20:05.826Z,100011.00
2018-10-17T14:22:34.938Z,100006.00
2018-10-17T14:25:04.235Z,100005.00
2018-10-17T14:27:33.512Z,100005.00
2018-10-17T14:30:03.082Z,100000.00
2018-10-17T14:32:32.578Z,100002.00
2018-10-17T14:35:01.938Z,100000.00
2018-10-17T14:37:31.187Z,99995.00
2018-10-17T14:40:00.672Z,99993.00
2018-10-17T14:42:30.124Z,99995.00
2018-10-17T14:44:59.594Z,99993.00
2018-10-17T14:47:28.761Z,100006.00
2018-10-17T14:49:57.852Z,100000.00
2018-10-17T14:52:27.070Z,100000.00
2018-10-17T14:54:56.351Z,100006.00
2018-10-17T14:57:25.654Z,100001.00
2018-10-17T14:59:55.082Z,100005.00
2018-10-17T15:02:24.378Z,100001.00
2018-10-17T15:05:00.311Z,100011.00
2018-10-17T15:07:29.497Z,100007.00
2018-10-17T15:09:58.745Z,100007.00
2018-10-17T15:12:27.842Z,100013.00
2018-10-17T15:14:57.009Z,100008.00
2018-10-17T15:17:26.287Z,100009.00
2018-10-17T15:19:56.437Z,100010.00
2018-10-17T15:22:26.071Z,100016.00
2018-10-17T15:24:55.337Z,100015.00
2018-10-17T15:27:24.517Z,100013.00
2018-10-17T15:29:53.900Z,100014.00
2018-10-17T15:32:23.099Z,100010.00
2018-10-17T15:34:52.213Z,100013.00
2018-10-17T15:37:21.518Z,100021.00
2018-10-17T15:39:50.659Z,100020.00
2018-10-17T15:42:19.898Z,100021.00
2018-10-17T15:44:49.161Z,100026.00
2018-10-17T15:47:18.807Z,100027.00
2018-10-17T15:49:48.153Z,100022.00
2018-10-17T15:52:17.430Z,100032.00
2018-10-17T15:54:46.764Z,100031.00
2018-10-17T15:57:16.293Z,100036.00
2018-10-17T15:59:45.547Z,100038.00
2018-10-17T16:02:15.017Z,100035.00
2018-10-17T16:04:44.485Z,100036.00
2018-10-17T16:07:13.933Z,100038.00
2018-10-17T16:09:43.259Z,100043.00
2018-10-17T16:12:12.602Z,100044.00
2018-10-17T16:14:41.960Z,100046.00
2018-10-17T16:17:11.207Z,100044.00
2018-10-17T16:19:40.449Z,100055.00
2018-10-17T16:22:11.080Z,100048.00
2018-10-17T16:24:40.275Z,100046.00
2018-10-17T16:27:09.424Z,100050.00
2018-10-17T16:29:38.911Z,100053.00
2018-10-17T16:32:08.304Z,100056.00
2018-10-17T16:34:38.094Z,100060.00
2018-10-17T16:37:07.148Z,100062.00
2018-10-17T16:39:36.263Z,100058.00
2018-10-17T16:42:05.974Z,100062.00
2018-10-17T16:44:35.092Z,100072.00
2018-10-17T16:47:04.612Z,100074.00
2018-10-17T16:49:33.930Z,100072.00
2018-10-17T16:52:03.053Z,100079.00
2018-10-17T16:54:32.472Z,100077.00
2018-10-17T16:57:01.713Z,100077.00
2018-10-17T16:59:30.983Z,100086.00
2018-10-17T17:02:00.144Z,100091.00
2018-10-17T17:04:29.423Z,100095.00
2018-10-17T17:07:00.038Z,100093.00
2018-10-17T17:09:29.201Z,100094.00
2018-10-17T17:11:58.282Z,100094.00
2018-10-17T17:14:27.565Z,100094.00
2018-10-17T17:16:56.701Z,100095.00
2018-10-17T17:19:26.593Z,100101.00
2018-10-17T17:21:56.139Z,100097.00
2018-10-17T17:24:25.368Z,100100.00
2018-10-17T17:26:54.554Z,100104.00
2018-10-17T17:29:23.736Z,100106.00
2018-10-17T17:31:53.144Z,100103.00
2018-10-17T17:34:22.603Z,100104.00
2018-10-17T17:36:51.857Z,100105.00
2018-10-17T17:39:21.285Z,100105.00
2018-10-17T17:41:50.372Z,100104.00
2018-10-17T17:44:19.673Z,100106.00
2018-10-17T17:46:49.229Z,100108.00
2018-10-17T17:49:18.647Z,100106.00
2018-10-17T17:51:48.520Z,100112.00
2018-10-17T17:54:18.271Z,100113.00
2018-10-17T17:56:47.568Z,100117.00
2018-10-17T18:02:00.259Z,100123.00
2018-10-17T18:04:29.710Z,100126.00
2018-10-17T18:06:59.440Z,100125.00
2018-10-17T18:09:30.512Z,100128.00
2018-10-17T18:12:01.210Z,100134.00
2018-10-17T18:14:30.253Z,100134.00
2018-10-17T18:16:59.555Z,100139.00
2018-10-17T18:19:28.756Z,100135.00
2018-10-17T18:21:58.518Z,100140.00
2018-10-17T18:24:28.186Z,100150.00
2018-10-17T18:26:57.373Z,100158.00
2018-10-17T18:29:26.780Z,100154.00
2018-10-17T18:31:56.878Z,100166.00
2018-10-17T18:34:26.269Z,100173.00
2018-10-17T18:36:55.421Z,100176.00
2018-10-17T18:39:24.739Z,100176.00
2018-10-17T18:41:54.225Z,100181.00
2018-10-17T18:44:23.736Z,100185.00
2018-10-17T18:46:53.221Z,100183.00
2018-10-17T18:49:22.844Z,100185.00
2018-10-17T18:51:52.580Z,100186.00
2018-10-17T18:54:22.072Z,100191.00
2018-10-17T18:56:51.607Z,100190.00
2018-10-17T18:59:23.876Z,100200.00
2018-10-17T19:01:53.967Z,100206.00
2018-10-17T19:04:23.193Z,100203.00
2018-10-17T19:06:52.549Z,100209.00
2018-10-17T19:09:21.734Z,100205.00
2018-10-17T19:11:50.967Z,100212.00
2018-10-17T19:14:20.124Z,100216.00
2018-10-17T19:16:49.237Z,100220.00
2018-10-17T19:19:18.658Z,100219.00
2018-10-17T19:21:47.878Z,100225.00
2018-10-17T19:24:17.859Z,100226.00
2018-10-17T19:26:47.133Z,100230.00
2018-10-17T19:29:16.364Z,100230.00
2018-10-17T19:31:46.051Z,100229.00
2018-10-17T19:34:15.814Z,100229.00
2018-10-17T19:36:45.414Z,100227.00
2018-10-17T19:39:15.590Z,100231.00
2018-10-17T19:41:45.537Z,100229.00
2018-10-17T19:46:52.231Z,100231.00
2018-10-17T19:49:22.281Z,100230.00
2018-10-17T19:51:52.456Z,100236.00
2018-10-17T19:54:21.733Z,100242.00
2018-10-17T19:56:51.311Z,100244.00
2018-10-17T19:59:21.681Z,100242.00
2018-10-17T20:01:51.200Z,100246.00
2018-10-17T20:04:20.845Z,100246.00
2018-10-17T20:06:50.020Z,100244.00
2018-10-17T20:09:19.369Z,100243.00
2018-10-17T20:11:48.677Z,100245.00
2018-10-17T20:14:18.233Z,100243.00
2018-10-17T20:16:47.280Z,100248.00
2018-10-17T20:19:16.691Z,100243.00
2018-10-17T20:21:46.633Z,100245.00
2018-10-17T20:24:15.945Z,100245.00
2018-10-17T20:26:45.208Z,100246.00
2018-10-17T20:29:14.934Z,100248.00
2018-10-17T20:31:44.286Z,100252.00
2018-10-17T20:34:14.883Z,100246.00
2018-10-17T20:36:43.991Z,100253.00
2018-10-17T20:39:14.708Z,100251.00
2018-10-17T20:41:43.961Z,100253.00
2018-10-17T20:44:14.258Z,100252.00
2018-10-17T20:46:43.458Z,100254.00
2018-10-17T20:49:12.726Z,100254.00
2018-10-17T20:51:42.502Z,100255.00
2018-10-17T20:54:11.698Z,100253.00
2018-10-17T20:56:40.767Z,100258.00
2018-10-17T20:59:09.832Z,100261.00
2018-10-17T21:01:38.948Z,100259.00
2018-10-17T21:04:08.061Z,100260.00
2018-10-17T21:06:37.307Z,100264.00
2018-10-17T21:09:11.389Z,100265.00
2018-10-17T21:11:41.109Z,100276.00
2018-10-17T21:14:11.476Z,100276.00
2018-10-17T21:16:41.670Z,100272.00
2018-10-17T21:19:10.958Z,100276.00
2018-10-17T21:21:40.380Z,100273.00
2018-10-17T21:24:09.994Z,100274.00
2018-10-17T21:26:39.229Z,100272.00
2018-10-17T21:29:08.296Z,100278.00
2018-10-17T21:31:37.507Z,100278.00
2018-10-17T21:34:06.768Z,100284.00
2018-10-17T21:36:35.968Z,100278.00
2018-10-17T21:39:08.987Z,100276.00
2018-10-17T21:41:38.117Z,100283.00
2018-10-17T21:44:08.331Z,100277.00
2018-10-17T21:46:37.445Z,100285.00
2018-10-17T21:49:08.020Z,100285.00
2018-10-17T21:51:37.161Z,100284.00
2018-10-17T21:54:06.705Z,100282.00
2018-10-17T21:56:35.905Z,100290.00
2018-10-17T21:59:05.640Z,100284.00
2018-10-17T22:01:34.716Z,100279.00
2018-10-17T22:04:04.092Z,100280.00
2018-10-17T22:06:33.216Z,100286.00
2018-10-17T22:09:02.331Z,100279.00
2018-10-17T22:11:31.895Z,100289.00
2018-10-17T22:14:01.392Z,100283.00
2018-10-17T22:16:35.829Z,100284.00
2018-10-17T22:19:05.198Z,100285.00
2018-10-17T22:21:34.275Z,100283.00
2018-10-17T22:24:03.368Z,100293.00
2018-10-17T22:26:32.564Z,100295.00
2018-10-17T22:29:01.860Z,100296.00
2018-10-17T22:31:31.217Z,100299.00
2018-10-17T22:34:01.128Z,100298.00
2018-10-17T22:36:30.335Z,100298.00
2018-10-17T22:38:59.456Z,100300.00
2018-10-17T22:41:28.565Z,100300.00
2018-10-17T22:43:57.651Z,100300.00
2018-10-17T22:46:26.905Z,100300.00
2018-10-17T22:48:55.993Z,100301.00
2018-10-17T22:51:25.056Z,100300.00
2018-10-17T22:53:54.132Z,100300.00
2018-10-17T22:56:23.276Z,100306.00
2018-10-17T22:58:52.618Z,100298.00
2018-10-17T23:01:22.096Z,100302.00
2018-10-17T23:03:51.216Z,100303.00
2018-10-17T23:06:20.351Z,100299.00
2018-10-17T23:08:49.398Z,100299.00
2018-10-17T23:11:18.541Z,100300.00
2018-10-17T23:13:47.662Z,100301.00
2018-10-17T23:16:16.771Z,100294.00
2018-10-17T23:18:45.901Z,100297.00
2018-10-17T23:21:14.997Z,100290.00
2018-10-17T23:23:44.203Z,100289.00
2018-10-17T23:26:13.403Z,100288.00
2018-10-17T23:28:42.559Z,100294.00
2018-10-17T23:31:11.712Z,100288.00
2018-10-17T23:33:41.212Z,100290.00
2018-10-17T23:36:11.646Z,100289.00
2018-10-17T23:38:40.737Z,100287.00
2018-10-17T23:41:10.851Z,100291.00
2018-10-17T23:43:40.785Z,100294.00
2018-10-17T23:46:10.818Z,100294.00
2018-10-17T23:48:41.202Z,100298.00
2018-10-17T23:51:11.063Z,100299.00
2018-10-17T23:53:41.104Z,100307.00
2018-10-17T23:56:10.387Z,100301.00
